createdAt,value
2019-02-20T00:01:10.538Z,20.53
2019-02-20T00:03:42.488Z,15.13
2019-02-20T00:06:17.551Z,19.53
2019-02-20T00:08:53.497Z,14.87
2019-02-20T00:11:28.040Z,17.27
2019-02-20T00:13:59.384Z,18.97
2019-02-20T00:16:32.893Z,17.60
2019-02-20T00:19:08.018Z,15.60
2019-02-20T00:21:44.771Z,12.70
2019-02-20T00:24:22.182Z,16.03
2019-02-20T00:26:57.841Z,16.57
2019-02-20T00:29:35.833Z,14.80
2019-02-20T00:32:09.298Z,14.50
2019-02-20T00:34:56.550Z,15.80
2019-02-20T00:38:07.226Z,14.17
2019-02-20T00:40:44.616Z,16.90
2019-02-20T00:43:24.222Z,14.90
2019-02-20T00:46:15.505Z,15.40
2019-02-20T00:49:16.599Z,12.73
2019-02-20T00:52:24.512Z,14.67
2019-02-20T00:55:02.705Z,16.60
2019-02-20T00:57:54.117Z,15.53
2019-02-20T01:00:34.596Z,14.17
2019-02-20T01:03:09.067Z,17.23
2019-02-20T01:05:48.281Z,15.33
2019-02-20T01:08:40.542Z,19.13
2019-02-20T01:11:19.271Z,16.87
2019-02-20T01:14:00.718Z,15.90
2019-02-20T01:16:37.159Z,18.00
2019-02-20T01:19:11.406Z,13.40
2019-02-20T01:21:54.481Z,15.53
2019-02-20T01:24:30.674Z,11.93
2019-02-20T01:27:09.326Z,15.70
2019-02-20T01:29:46.565Z,14.97
2019-02-20T01:32:21.824Z,16.07
2019-02-20T01:35:02.756Z,17.87
2019-02-20T01:37:37.812Z,15.10
2019-02-20T01:40:18.504Z,18.47
2019-02-20T01:43:06.303Z,15.37
2019-02-20T01:45:39.515Z,17.17
2019-02-20T01:48:21.732Z,13.73
2019-02-20T01:51:08.429Z,18.27
2019-02-20T01:53:49.165Z,15.60
2019-02-20T01:56:29.467Z,19.57
2019-02-20T01:59:10.833Z,17.47
2019-02-20T02:01:47.327Z,20.37
2019-02-20T02:04:27.650Z,18.50
2019-02-20T02:07:05.651Z,16.63
2019-02-20T02:09:43.791Z,16.17
2019-02-20T02:12:37.387Z,16.00
2019-02-20T02:15:20.419Z,18.07
2019-02-20T02:18:09.857Z,16.13
2019-02-20T02:20:56.018Z,19.13
2019-02-20T02:23:34.855Z,18.40
2019-02-20T02:26:40.792Z,21.37
2019-02-20T02:29:41.993Z,18.30
2019-02-20T02:33:01.022Z,19.53
2019-02-20T02:35:55.181Z,21.13
2019-02-20T02:38:29.759Z,16.77
2019-02-20T02:41:24.838Z,19.00
2019-02-20T02:44:03.777Z,22.60
2019-02-20T02:46:53.723Z,24.40
2019-02-20T02:49:30.138Z,20.83
2019-02-20T02:52:08.781Z,19.33
2019-02-20T02:54:50.209Z,20.20
2019-02-20T02:57:34.974Z,18.47
2019-02-20T03:00:10.537Z,20.27
2019-02-20T03:02:53.377Z,20.50
2019-02-20T03:05:28.970Z,25.30
2019-02-20T03:08:06.181Z,16.33
2019-02-20T03:10:58.464Z,19.17
2019-02-20T03:13:35.508Z,24.77
2019-02-20T03:16:14.553Z,19.87
2019-02-20T03:19:13.205Z,18.67
2019-02-20T03:21:50.855Z,21.50
2019-02-20T03:24:34.845Z,25.47
2019-02-20T03:27:15.355Z,23.43
2019-02-20T03:29:45.265Z,20.90
2019-02-20T03:32:31.222Z,23.30
2019-02-20T03:35:06.747Z,20.30
2019-02-20T03:37:39.246Z,26.80
2019-02-20T03:40:20.230Z,20.67
2019-02-20T03:42:54.000Z,21.30
2019-02-20T03:45:35.034Z,21.53
2019-02-20T03:48:05.758Z,16.40
2019-02-20T03:50:40.355Z,20.77
2019-02-20T03:53:17.215Z,22.20
2019-02-20T03:55:52.370Z,19.50
2019-02-20T03:58:28.293Z,19.57
2019-02-20T04:01:02.772Z,17.90
2019-02-20T04:03:34.544Z,21.40
2019-02-20T04:06:07.943Z,18.13
2019-02-20T04:08:45.745Z,20.50
2019-02-20T04:11:29.003Z,16.70
2019-02-20T04:14:06.359Z,20.10
2019-02-20T04:16:40.542Z,19.40
2019-02-20T04:19:14.550Z,22.50
2019-02-20T04:21:52.019Z,20.73
2019-02-20T04:24:33.519Z,18.40
2019-02-20T04:27:13.341Z,24.53
2019-02-20T04:29:57.096Z,20.33
2019-02-20T04:32:33.289Z,23.07
2019-02-20T04:35:28.826Z,23.40
2019-02-20T04:38:15.127Z,24.20
2019-02-20T04:40:58.928Z,28.10
2019-02-20T04:43:54.889Z,25.53
2019-02-20T04:46:28.837Z,28.43
2019-02-20T04:49:04.049Z,24.30
2019-02-20T04:51:39.228Z,25.67
2019-02-20T04:54:20.250Z,24.83
2019-02-20T04:57:02.119Z,24.80
2019-02-20T04:59:36.383Z,26.23
2019-02-20T05:02:11.263Z,21.33
2019-02-20T05:04:45.704Z,26.13
2019-02-20T05:07:19.665Z,22.60
2019-02-20T05:09:56.303Z,22.33
2019-02-20T05:12:39.794Z,26.77
2019-02-20T05:15:15.447Z,26.53
2019-02-20T05:18:00.654Z,29.93
2019-02-20T05:20:46.795Z,24.33
2019-02-20T05:23:27.193Z,26.53
2019-02-20T05:26:12.626Z,26.33
2019-02-20T05:28:53.495Z,27.27
2019-02-20T05:31:51.407Z,26.43
2019-02-20T05:34:34.769Z,25.83
2019-02-20T05:37:20.542Z,26.27
2019-02-20T05:40:15.990Z,29.83
2019-02-20T05:42:53.715Z,23.97
2019-02-20T05:45:31.272Z,25.57
2019-02-20T05:48:06.532Z,23.73
2019-02-20T05:50:45.221Z,24.80
2019-02-20T05:53:21.087Z,23.37
2019-02-20T05:55:56.257Z,24.50
2019-02-20T05:58:45.047Z,23.53
2019-02-20T06:01:18.160Z,29.83
2019-02-20T06:03:56.470Z,29.83
2019-02-20T06:06:37.712Z,27.37
2019-02-20T06:09:17.747Z,31.50
2019-02-20T06:11:53.728Z,28.10
2019-02-20T06:14:31.568Z,31.83
2019-02-20T06:17:05.506Z,29.77
2019-02-20T06:19:42.131Z,24.90
2019-02-20T06:22:20.624Z,29.80
2019-02-20T06:25:02.304Z,29.33
2019-02-20T06:27:36.651Z,27.63
2019-02-20T06:30:08.309Z,26.10
2019-02-20T06:32:50.078Z,28.33
2019-02-20T06:35:27.570Z,25.30
2019-02-20T06:38:11.029Z,30.17
2019-02-20T06:40:45.605Z,28.33
2019-02-20T06:43:27.850Z,30.87
2019-02-20T06:46:00.925Z,25.83
2019-02-20T06:48:37.072Z,29.57
2019-02-20T06:51:14.955Z,30.30
2019-02-20T06:53:54.102Z,29.00
2019-02-20T06:56:51.203Z,28.47
2019-02-20T06:59:32.884Z,27.03
2019-02-20T07:02:17.055Z,33.80
2019-02-20T07:05:46.451Z,30.60
2019-02-20T07:08:43.558Z,28.87
2019-02-20T07:11:34.011Z,27.63
2019-02-20T07:14:58.003Z,31.27
2019-02-20T07:17:56.828Z,31.00
2019-02-20T07:21:13.874Z,29.27
2019-02-20T07:24:09.527Z,30.90
2019-02-20T07:27:02.239Z,32.50
2019-02-20T07:29:59.897Z,30.60
2019-02-20T07:32:27.571Z,31.57
2019-02-20T07:34:55.161Z,30.87
2019-02-20T07:37:26.484Z,36.10
2019-02-20T07:39:54.115Z,34.17
2019-02-20T07:42:25.917Z,28.97
2019-02-20T07:44:59.387Z,34.30
2019-02-20T07:47:39.678Z,33.83
2019-02-20T07:50:13.677Z,32.20
2019-02-20T07:52:51.231Z,35.57
2019-02-20T07:55:28.557Z,31.80
2019-02-20T07:58:04.479Z,35.77
2019-02-20T08:00:38.115Z,31.23
2019-02-20T08:03:12.499Z,30.53
2019-02-20T08:05:51.653Z,35.00
2019-02-20T08:08:33.308Z,34.50
2019-02-20T08:11:10.603Z,30.50
2019-02-20T08:13:47.633Z,32.17
2019-02-20T08:16:21.705Z,37.80
2019-02-20T08:19:02.167Z,34.77
2019-02-20T08:21:35.754Z,35.13
2019-02-20T08:24:11.799Z,35.63
2019-02-20T08:26:49.484Z,33.70
2019-02-20T08:29:27.489Z,35.73
2019-02-20T08:31:58.548Z,36.30
2019-02-20T08:34:35.264Z,35.33
2019-02-20T08:37:19.936Z,31.13
2019-02-20T08:39:59.372Z,33.73
2019-02-20T08:42:40.582Z,32.00
2019-02-20T08:45:12.092Z,32.63
2019-02-20T08:47:47.610Z,32.70
2019-02-20T08:50:22.436Z,34.27
2019-02-20T08:52:57.213Z,34.40
2019-02-20T08:55:32.332Z,32.83
2019-02-20T08:58:07.888Z,32.07
2019-02-20T09:00:47.271Z,33.63
2019-02-20T09:03:24.402Z,29.50
2019-02-20T09:06:19.498Z,28.63
2019-02-20T09:08:59.026Z,28.23
2019-02-20T09:11:56.087Z,30.40
2019-02-20T09:14:38.106Z,40.90
2019-02-20T09:17:37.531Z,27.60
2019-02-20T09:20:29.219Z,31.07
2019-02-20T09:23:05.179Z,32.50
2019-02-20T09:25:45.590Z,30.63
2019-02-20T09:28:19.437Z,30.17
2019-02-20T09:30:53.169Z,32.20
2019-02-20T09:33:54.025Z,27.37
2019-02-20T09:36:30.141Z,30.60
2019-02-20T09:39:54.218Z,27.13
2019-02-20T09:42:31.533Z,28.07
2019-02-20T09:45:03.059Z,34.10
2019-02-20T09:47:44.523Z,28.83
2019-02-20T09:50:18.162Z,33.17
2019-02-20T09:53:00.855Z,29.03
2019-02-20T09:55:33.943Z,32.33
2019-02-20T09:58:25.165Z,27.67
2019-02-20T10:04:33.416Z,26.53
2019-02-20T10:07:23.232Z,22.93
2019-02-20T10:09:54.691Z,26.53
2019-02-20T10:12:45.743Z,26.37
2019-02-20T10:15:39.781Z,25.93
2019-02-20T10:18:19.187Z,22.77
2019-02-20T10:21:01.251Z,22.67
2019-02-20T10:23:45.528Z,23.63
2019-02-20T10:26:27.923Z,29.47
2019-02-20T10:29:15.760Z,21.53
2019-02-20T10:31:54.046Z,22.60
2019-02-20T10:34:30.387Z,22.47
2019-02-20T10:37:28.462Z,21.13
2019-02-20T10:40:10.656Z,20.30
2019-02-20T10:43:13.612Z,21.50
2019-02-20T10:46:07.603Z,20.10
2019-02-20T10:48:49.245Z,18.93
2019-02-20T10:51:24.535Z,18.30
2019-02-20T10:54:03.237Z,18.97
2019-02-20T10:56:47.275Z,19.80
2019-02-20T10:59:33.106Z,18.47
2019-02-20T11:02:33.147Z,20.13
2019-02-20T11:05:08.360Z,19.10
2019-02-20T11:07:53.542Z,19.60
2019-02-20T11:10:34.721Z,15.67
2019-02-20T11:13:14.264Z,17.20
2019-02-20T11:16:00.721Z,15.43
2019-02-20T11:18:33.946Z,17.17
2019-02-20T11:21:31.382Z,16.03
2019-02-20T11:24:36.298Z,15.53
2019-02-20T11:27:28.372Z,18.47
2019-02-20T11:30:28.402Z,20.50
2019-02-20T11:33:05.027Z,16.80
2019-02-20T11:35:47.400Z,17.07
2019-02-20T11:38:26.321Z,18.03
2019-02-20T11:41:13.571Z,17.00
2019-02-20T11:43:58.410Z,16.43
2019-02-20T11:46:29.736Z,17.83
2019-02-20T11:49:08.584Z,17.10
2019-02-20T11:51:58.330Z,19.43
2019-02-20T11:54:42.760Z,20.73
2019-02-20T11:58:03.477Z,14.23
2019-02-20T12:00:46.202Z,17.30
2019-02-20T12:06:50.505Z,21.27
2019-02-20T12:09:36.209Z,20.20
2019-02-20T12:12:19.245Z,17.53
2019-02-20T12:15:25.426Z,16.60
2019-02-20T12:18:17.537Z,16.50
2019-02-20T12:20:59.298Z,17.83
2019-02-20T12:27:51.235Z,17.97
2019-02-20T12:30:51.016Z,18.50
2019-02-20T12:33:54.505Z,15.27
2019-02-20T12:36:38.298Z,17.77
2019-02-20T12:39:51.468Z,19.73
2019-02-20T12:42:57.027Z,16.47
2019-02-20T12:45:49.598Z,15.47
2019-02-20T12:49:25.638Z,17.60
2019-02-20T12:52:16.473Z,18.63
2019-02-20T12:54:59.298Z,16.03
2019-02-20T12:57:37.723Z,17.67
2019-02-20T13:00:38.698Z,17.80
2019-02-20T13:03:34.312Z,17.00
2019-02-20T13:06:29.768Z,17.00
2019-02-20T13:09:14.596Z,14.57
2019-02-20T13:12:01.327Z,16.00
2019-02-20T13:14:33.906Z,17.90
2019-02-20T13:17:17.620Z,14.57
2019-02-20T13:20:00.960Z,12.23
2019-02-20T13:22:49.926Z,14.73
2019-02-20T13:29:31.226Z,13.60
2019-02-20T13:32:40.787Z,13.90
2019-02-20T13:35:32.582Z,13.90
2019-02-20T13:38:20.463Z,17.90
2019-02-20T13:40:58.120Z,15.77
2019-02-20T13:43:32.314Z,15.33
2019-02-20T13:46:02.664Z,11.37
2019-02-20T13:48:45.268Z,10.73
2019-02-20T13:51:47.459Z,9.67
2019-02-20T13:54:44.014Z,11.90
2019-02-20T14:01:47.229Z,9.60
2019-02-20T14:04:44.499Z,9.63
2019-02-20T14:08:39.003Z,9.97
2019-02-20T14:10:45.901Z,13.67
2019-02-20T14:17:26.182Z,12.20
2019-02-20T14:20:33.869Z,10.77
2019-02-20T14:23:16.628Z,9.07
2019-02-20T14:26:59.557Z,5.70
2019-02-20T14:29:17.919Z,6.37
2019-02-20T14:45:05.884Z,9.23
2019-02-20T14:47:56.076Z,9.97
2019-02-20T14:50:40.181Z,9.00
2019-02-20T14:53:43.901Z,6.40
2019-02-20T14:56:22.703Z,7.87
2019-02-20T14:59:17.492Z,8.17
2019-02-20T15:02:24.126Z,8.80
2019-02-20T15:06:14.180Z,10.07
2019-02-20T15:08:53.996Z,11.20
2019-02-20T15:11:45.103Z,7.17
2019-02-20T15:14:49.015Z,7.27
2019-02-20T15:18:07.212Z,8.07
2019-02-20T15:21:13.379Z,5.67
2019-02-20T15:23:47.599Z,6.33
2019-02-20T15:30:13.041Z,6.70
2019-02-20T15:33:00.627Z,7.20
2019-02-20T15:35:39.301Z,8.90
2019-02-20T15:38:29.271Z,7.77
2019-02-20T15:41:22.828Z,6.63
2019-02-20T15:43:57.649Z,9.23
2019-02-20T15:46:35.373Z,7.70
2019-02-20T15:49:58.592Z,8.37
2019-02-20T15:52:34.844Z,6.67
2019-02-20T15:55:36.576Z,6.77
2019-02-20T15:58:40.726Z,7.83
2019-02-20T16:01:26.345Z,7.63
2019-02-20T16:05:08.835Z,8.87
2019-02-20T16:08:20.973Z,7.93
2019-02-20T16:11:15.496Z,7.43
2019-02-20T16:13:56.833Z,6.50
2019-02-20T16:16:31.781Z,7.73
2019-02-20T16:22:40.310Z,7.13
2019-02-20T16:25:41.074Z,7.40
2019-02-20T16:28:21.999Z,8.93
2019-02-20T16:31:27.093Z,10.13
2019-02-20T16:34:54.312Z,8.33
2019-02-20T16:37:27.772Z,11.93
2019-02-20T16:40:05.747Z,11.70
2019-02-20T16:42:39.356Z,9.97
2019-02-20T16:45:30.389Z,8.60
2019-02-20T16:47:58.157Z,8.70
2019-02-20T16:50:30.276Z,10.80
2019-02-20T16:53:01.122Z,11.73
2019-02-20T16:55:28.759Z,8.03
2019-02-20T16:58:03.998Z,10.93
2019-02-20T17:00:32.068Z,7.97
2019-02-20T17:03:00.222Z,9.83
2019-02-20T17:05:30.242Z,7.50
2019-02-20T17:07:59.346Z,7.43
2019-02-20T17:10:29.920Z,9.27
2019-02-20T17:12:57.530Z,6.63
2019-02-20T17:15:31.497Z,8.90
2019-02-20T17:18:01.747Z,7.83
2019-02-20T17:20:29.582Z,7.47
2019-02-20T17:23:00.142Z,6.83
2019-02-20T17:25:41.455Z,7.03
2019-02-20T17:28:15.212Z,8.07
2019-02-20T17:30:53.102Z,8.33
2019-02-20T17:33:28.929Z,7.93
2019-02-20T17:36:17.706Z,8.10
2019-02-20T17:38:54.630Z,11.10
2019-02-20T17:41:30.841Z,7.20
2019-02-20T17:44:05.495Z,9.57
2019-02-20T17:46:37.799Z,7.23
2019-02-20T17:49:11.210Z,10.17
2019-02-20T17:51:47.807Z,7.80
2019-02-20T17:54:18.508Z,10.80
2019-02-20T17:56:47.460Z,10.73
2019-02-20T17:59:18.829Z,9.73
2019-02-20T18:01:51.742Z,12.23
2019-02-20T18:04:22.301Z,8.40
2019-02-20T18:06:55.538Z,7.40
2019-02-20T18:09:26.470Z,9.53
2019-02-20T18:11:56.016Z,10.47
2019-02-20T18:14:28.561Z,8.73
2019-02-20T18:16:58.626Z,9.27
2019-02-20T18:19:33.408Z,13.83
2019-02-20T18:22:01.309Z,10.57
2019-02-20T18:24:36.317Z,10.50
2019-02-20T18:27:09.163Z,10.33
2019-02-20T18:29:51.902Z,10.77
2019-02-20T18:32:22.160Z,9.33
2019-02-20T18:34:53.430Z,11.23
2019-02-20T18:37:28.352Z,9.27
2019-02-20T18:39:56.734Z,11.20
2019-02-20T18:42:29.518Z,13.37
2019-02-20T18:44:59.609Z,11.80
2019-02-20T18:47:30.417Z,10.47
2019-02-20T18:49:58.376Z,11.97
2019-02-20T18:52:36.010Z,11.90
2019-02-20T18:55:16.142Z,11.73
2019-02-20T18:57:43.943Z,21.30
2019-02-20T19:00:16.443Z,31.57
2019-02-20T19:02:46.581Z,32.87
2019-02-20T19:05:19.323Z,33.20
2019-02-20T19:07:47.613Z,34.13
2019-02-20T19:10:19.433Z,23.13
2019-02-20T19:13:34.889Z,24.37
2019-02-20T19:16:27.557Z,17.27
2019-02-20T19:19:44.816Z,18.73
2019-02-20T19:22:44.089Z,14.97
2019-02-20T19:25:32.093Z,18.33
2019-02-20T19:28:29.273Z,15.83
2019-02-20T19:31:46.521Z,18.67
2019-02-20T19:35:04.755Z,14.80
2019-02-20T19:38:06.204Z,14.90
2019-02-20T19:41:03.980Z,16.53
2019-02-20T19:44:02.269Z,19.20
2019-02-20T19:46:57.183Z,16.83
2019-02-20T19:50:14.043Z,19.13
2019-02-20T19:53:09.950Z,19.30
2019-02-20T19:56:07.646Z,18.73
2019-02-20T19:58:58.524Z,18.20
2019-02-20T20:02:04.088Z,18.47
2019-02-20T20:04:49.689Z,16.50
2019-02-20T20:08:05.115Z,18.30
2019-02-20T20:11:07.345Z,17.60
2019-02-20T20:14:21.718Z,18.63
2019-02-20T20:17:26.023Z,18.03
2019-02-20T20:20:18.787Z,21.17
2019-02-20T20:23:19.808Z,18.77
2019-02-20T20:26:29.072Z,18.57
2019-02-20T20:29:16.572Z,20.70
2019-02-20T20:32:33.409Z,17.43
2019-02-20T20:35:22.499Z,18.07
2019-02-20T20:38:23.372Z,20.53
2019-02-20T20:41:23.641Z,18.33
2019-02-20T20:44:28.111Z,18.03
2019-02-20T20:47:30.982Z,20.13
2019-02-20T20:50:28.418Z,20.17
2019-02-20T20:53:46.934Z,19.53
2019-02-20T20:57:11.260Z,22.27
2019-02-20T21:00:03.218Z,19.17
2019-02-20T21:02:42.498Z,19.00
2019-02-20T21:05:53.731Z,17.83
2019-02-20T21:08:45.752Z,19.40
2019-02-20T21:11:46.822Z,13.77
2019-02-20T21:14:51.844Z,16.90
2019-02-20T21:17:57.358Z,15.87
2019-02-20T21:21:10.835Z,17.80
2019-02-20T21:24:37.930Z,19.57
2019-02-20T21:27:39.968Z,18.60
2019-02-20T21:30:24.529Z,18.53
2019-02-20T21:33:32.160Z,18.33
2019-02-20T21:36:46.155Z,19.17
2019-02-20T21:39:46.578Z,18.03
2019-02-20T21:43:14.455Z,18.20
2019-02-20T21:46:17.831Z,18.50
2019-02-20T21:49:24.957Z,18.03
2019-02-20T21:52:21.068Z,20.00
2019-02-20T21:55:41.765Z,16.87
2019-02-20T21:58:41.600Z,17.23
2019-02-20T22:01:42.591Z,16.73
2019-02-20T22:04:40.656Z,15.80
2019-02-20T22:07:34.669Z,18.50
2019-02-20T22:10:22.750Z,17.43
2019-02-20T22:13:22.299Z,16.87
2019-02-20T22:16:30.364Z,18.73
2019-02-20T22:20:04.347Z,21.87
2019-02-20T22:23:08.087Z,17.07
2019-02-20T22:26:19.581Z,19.03
2019-02-20T22:29:04.018Z,17.97
2019-02-20T22:32:10.386Z,17.33
2019-02-20T22:35:13.781Z,17.83
2019-02-20T22:38:41.681Z,18.40
2019-02-20T22:42:17.632Z,21.77
2019-02-20T22:45:40.643Z,18.90
2019-02-20T22:48:57.488Z,22.03
2019-02-20T22:52:02.297Z,19.03
2019-02-20T22:58:44.873Z,20.93
2019-02-20T23:01:59.988Z,18.63
2019-02-20T23:05:01.505Z,16.57
2019-02-20T23:07:55.637Z,22.23
2019-02-20T23:11:03.445Z,18.67
2019-02-20T23:14:30.985Z,15.97
2019-02-20T23:16:59.216Z,20.97
2019-02-20T23:19:27.507Z,23.73
2019-02-20T23:21:58.237Z,21.03
2019-02-20T23:24:26.690Z,21.70
2019-02-20T23:27:01.582Z,24.40
2019-02-20T23:29:38.394Z,22.73
2019-02-20T23:32:13.837Z,19.67
2019-02-20T23:34:51.508Z,19.93
2019-02-20T23:37:29.382Z,22.27
2019-02-20T23:40:04.844Z,22.90
2019-02-20T23:42:49.347Z,23.93
2019-02-20T23:45:24.994Z,23.47
2019-02-20T23:47:58.623Z,22.27
2019-02-20T23:50:33.673Z,20.20
2019-02-20T23:53:14.030Z,19.50
2019-02-20T23:55:55.523Z,18.83
2019-02-20T23:58:30.229Z,21.63
